createdAt,value
2023-04-10T00:01:12.510Z,12.10
2023-04-10T00:03:41.415Z,13.18
2023-04-10T00:06:09.134Z,12.05
2023-04-10T00:08:36.951Z,12.15
2023-04-10T00:11:04.897Z,12.32
2023-04-10T00:13:32.736Z,11.57
2023-04-10T00:16:00.421Z,12.98
2023-04-10T00:18:28.705Z,12.13
2023-04-10T00:20:56.337Z,11.60
2023-04-10T00:23:24.222Z,11.80
2023-04-10T00:31:08.720Z,12.60
2023-04-10T00:33:36.380Z,11.93
2023-04-10T00:36:04.800Z,12.10
2023-04-10T00:38:33.228Z,11.25
2023-04-10T00:41:01.107Z,12.40
2023-04-10T00:43:28.691Z,11.77
2023-04-10T00:45:56.725Z,12.45
2023-04-10T00:48:26.190Z,12.90
2023-04-10T00:50:55.204Z,10.90
2023-04-10T00:53:22.882Z,13.13
2023-04-10T00:55:57.480Z,12.57
2023-04-10T00:58:26.710Z,12.52
2023-04-10T01:03:24.041Z,12.43
2023-04-10T01:09:01.489Z,12.77
2023-04-10T01:11:54.969Z,13.38
2023-04-10T01:14:51.704Z,13.13
2023-04-10T01:17:29.640Z,12.15
2023-04-10T01:20:17.048Z,12.77
2023-04-10T01:23:42.171Z,12.63
2023-04-10T01:26:11.997Z,12.60
2023-04-10T01:29:01.892Z,13.38
2023-04-10T01:31:50.500Z,14.20
2023-04-10T01:34:25.164Z,13.27
2023-04-10T01:37:27.494Z,13.93
2023-04-10T01:40:09.334Z,13.98
2023-04-10T01:42:47.989Z,13.02
2023-04-10T01:45:21.371Z,13.25
2023-04-10T01:47:52.386Z,13.40
2023-04-10T01:50:24.306Z,13.32
2023-04-10T01:52:52.926Z,13.25
2023-04-10T01:55:27.582Z,12.98
2023-04-10T01:58:07.363Z,12.65
2023-04-10T02:00:41.644Z,12.40
2023-04-10T02:03:10.664Z,14.00
2023-04-10T02:06:16.229Z,13.05
2023-04-10T02:08:59.518Z,12.23
2023-04-10T02:11:35.470Z,13.43
2023-04-10T02:14:08.605Z,13.25
2023-04-10T02:16:38.665Z,12.65
2023-04-10T02:19:06.898Z,12.10
2023-04-10T02:21:35.140Z,11.50
2023-04-10T02:24:02.851Z,12.35
2023-04-10T02:26:30.368Z,12.30
2023-04-10T02:28:58.097Z,12.05
2023-04-10T02:31:26.224Z,11.85
2023-04-10T02:33:55.354Z,12.43
2023-04-10T02:36:23.149Z,12.13
2023-04-10T02:38:51.298Z,12.40
2023-04-10T02:41:19.108Z,11.90
2023-04-10T02:43:47.025Z,12.95
2023-04-10T02:46:15.416Z,12.73
2023-04-10T02:48:43.092Z,11.90
2023-04-10T02:51:10.750Z,11.98
2023-04-10T02:53:38.747Z,11.65
2023-04-10T02:56:08.257Z,11.98
2023-04-10T02:58:36.532Z,12.60
2023-04-10T03:01:09.679Z,11.73
2023-04-10T03:03:42.527Z,12.13
2023-04-10T03:06:11.024Z,12.47
2023-04-10T03:11:09.263Z,11.45
2023-04-10T03:13:36.947Z,12.05
2023-04-10T03:16:04.774Z,11.93
2023-04-10T03:18:34.139Z,11.68
2023-04-10T03:21:02.619Z,12.50
2023-04-10T03:23:30.146Z,12.70
2023-04-10T03:25:58.410Z,11.68
2023-04-10T03:28:29.722Z,12.25
2023-04-10T03:30:57.293Z,11.20
2023-04-10T03:33:25.365Z,12.48
2023-04-10T03:35:53.627Z,12.10
2023-04-10T03:38:21.386Z,13.18
2023-04-10T03:40:48.895Z,12.00
2023-04-10T03:43:19.582Z,12.45
2023-04-10T03:45:48.981Z,11.32
2023-04-10T03:48:17.886Z,11.93
2023-04-10T03:50:47.712Z,11.50
2023-04-10T03:53:17.089Z,11.35
2023-04-10T03:55:45.898Z,10.52
2023-04-10T03:58:13.424Z,10.63
2023-04-10T04:00:41.182Z,10.63
2023-04-10T04:03:16.096Z,11.27
2023-04-10T04:05:50.989Z,12.02
2023-04-10T04:08:25.553Z,11.63
2023-04-10T04:11:13.042Z,11.77
2023-04-10T04:16:53.056Z,11.18
2023-04-10T04:19:34.484Z,10.68
2023-04-10T04:22:27.942Z,11.57
2023-04-10T04:25:01.518Z,10.48
2023-04-10T04:28:01.971Z,11.43
2023-04-10T04:30:49.454Z,11.15
2023-04-10T04:36:05.536Z,10.55
2023-04-10T04:39:03.434Z,10.30
2023-04-10T04:41:55.146Z,11.23
2023-04-10T04:44:50.591Z,10.32
2023-04-10T04:47:42.808Z,10.82
2023-04-10T04:50:36.762Z,10.68
2023-04-10T04:53:17.293Z,10.73
2023-04-10T04:56:08.345Z,11.02
2023-04-10T04:58:45.352Z,11.43
2023-04-10T05:01:36.234Z,11.00
2023-04-10T05:04:10.225Z,11.17
2023-04-10T05:06:57.936Z,9.13
2023-04-10T05:09:45.428Z,9.60
2023-04-10T05:12:41.875Z,10.60
2023-04-10T05:15:22.477Z,10.30
2023-04-10T05:18:08.343Z,10.90
2023-04-10T05:20:59.457Z,10.15
2023-04-10T05:23:45.799Z,10.43
2023-04-10T05:26:28.500Z,8.43
2023-04-10T05:29:20.840Z,10.02
2023-04-10T05:32:11.727Z,9.70
2023-04-10T05:34:58.216Z,9.60
2023-04-10T05:38:06.695Z,10.45
2023-04-10T05:40:57.498Z,10.43
2023-04-10T05:43:37.897Z,10.40
2023-04-10T05:46:26.679Z,9.85
2023-04-10T05:49:18.452Z,9.85
2023-04-10T05:52:12.447Z,10.75
2023-04-10T05:55:04.758Z,12.23
2023-04-10T05:57:41.396Z,10.68
2023-04-10T06:00:44.014Z,9.63
2023-04-10T06:03:35.539Z,9.57
2023-04-10T06:06:04.040Z,9.73
2023-04-10T06:08:34.639Z,10.73
2023-04-10T06:11:02.316Z,10.98
2023-04-10T06:13:32.610Z,9.82
2023-04-10T06:16:02.193Z,10.65
2023-04-10T06:18:31.410Z,10.27
2023-04-10T06:21:01.871Z,11.48
2023-04-10T06:23:29.866Z,10.73
2023-04-10T06:25:57.644Z,10.57
2023-04-10T06:28:25.419Z,10.48
2023-04-10T06:30:57.551Z,11.00
2023-04-10T06:33:31.734Z,10.95
2023-04-10T06:35:59.644Z,11.00
2023-04-10T06:38:27.363Z,10.43
2023-04-10T06:40:55.154Z,10.90
2023-04-10T06:43:22.796Z,11.38
2023-04-10T06:45:51.145Z,10.07
2023-04-10T06:48:18.914Z,9.10
2023-04-10T06:50:46.600Z,8.68
2023-04-10T06:53:14.219Z,10.23
2023-04-10T06:55:41.802Z,8.70
2023-04-10T06:58:09.325Z,9.13
2023-04-10T07:00:36.932Z,8.73
2023-04-10T07:03:04.550Z,9.68
2023-04-10T07:05:32.217Z,9.45
2023-04-10T07:08:00.120Z,8.77
2023-04-10T07:10:27.708Z,9.43
2023-04-10T07:12:57.256Z,10.48
2023-04-10T07:15:25.737Z,8.45
2023-04-10T07:17:53.273Z,8.68
2023-04-10T07:20:21.106Z,8.82
2023-04-10T07:22:48.748Z,8.98
2023-04-10T07:25:22.570Z,8.70
2023-04-10T07:27:50.620Z,8.23
2023-04-10T07:30:20.395Z,8.80
2023-04-10T07:32:48.335Z,8.45
2023-04-10T07:35:22.072Z,9.00
2023-04-10T07:37:52.459Z,8.95
2023-04-10T07:40:20.486Z,7.70
2023-04-10T07:42:48.390Z,8.18
2023-04-10T07:45:21.311Z,7.43
2023-04-10T07:47:49.580Z,6.40
2023-04-10T07:50:17.315Z,6.82
2023-04-10T07:52:44.919Z,6.78
2023-04-10T07:55:12.558Z,5.95
2023-04-10T07:57:41.708Z,5.97
2023-04-10T08:00:10.623Z,5.35
2023-04-10T08:02:41.270Z,5.85
2023-04-10T08:05:13.575Z,5.57
2023-04-10T08:07:41.394Z,5.53
2023-04-10T08:10:09.470Z,5.60
2023-04-10T08:12:37.334Z,5.65
2023-04-10T08:15:05.661Z,5.53
2023-04-10T08:17:33.213Z,4.77
2023-04-10T08:20:00.750Z,5.18
2023-04-10T08:22:28.375Z,5.05
2023-04-10T08:24:55.952Z,4.95
2023-04-10T08:27:23.541Z,5.18
2023-04-10T08:29:51.152Z,4.30
2023-04-10T08:32:18.719Z,4.25
2023-04-10T08:34:46.729Z,4.65
2023-04-10T08:37:15.692Z,5.10
2023-04-10T08:39:43.274Z,4.53
2023-04-10T08:42:10.818Z,4.20
2023-04-10T08:44:39.741Z,4.57
2023-04-10T08:47:08.709Z,4.22
2023-04-10T08:49:54.317Z,4.75
2023-04-10T08:52:25.276Z,3.95
2023-04-10T08:54:58.646Z,4.28
2023-04-10T08:57:27.280Z,4.40
2023-04-10T08:59:55.542Z,3.67
2023-04-10T09:02:24.535Z,3.90
2023-04-10T09:04:56.369Z,3.60
2023-04-10T09:07:24.073Z,3.83
2023-04-10T09:09:51.652Z,3.63
2023-04-10T09:12:19.350Z,3.22
2023-04-10T09:14:49.644Z,3.80
2023-04-10T09:17:24.277Z,3.25
2023-04-10T09:19:56.354Z,3.55
2023-04-10T09:22:36.285Z,3.00
2023-04-10T09:25:05.669Z,3.45
2023-04-10T09:27:35.484Z,2.95
2023-04-10T09:30:05.073Z,3.13
2023-04-10T09:35:09.540Z,3.45
2023-04-10T09:37:41.276Z,3.55
2023-04-10T09:40:27.868Z,3.03
2023-04-10T09:42:57.720Z,3.30
2023-04-10T09:45:25.923Z,3.03
2023-04-10T09:48:06.609Z,2.75
2023-04-10T09:50:40.744Z,3.00
2023-04-10T09:53:20.123Z,3.22
2023-04-10T09:55:49.621Z,3.00
2023-04-10T09:58:19.072Z,3.28
2023-04-10T10:00:49.328Z,2.80
2023-04-10T10:03:25.434Z,2.80
2023-04-10T10:05:53.163Z,2.17
2023-04-10T10:08:21.808Z,2.38
2023-04-10T10:10:54.110Z,2.70
2023-04-10T10:13:32.111Z,3.00
2023-04-10T10:16:47.393Z,2.93
2023-04-10T10:19:29.224Z,2.45
2023-04-10T10:21:57.529Z,2.88
2023-04-10T10:24:28.058Z,6.35
2023-04-10T10:26:59.677Z,2.17
2023-04-10T10:29:32.315Z,2.35
2023-04-10T10:32:03.747Z,2.00
2023-04-10T10:34:31.873Z,2.28
2023-04-10T10:36:59.989Z,2.40
2023-04-10T10:40:42.399Z,1.95
2023-04-10T10:43:52.935Z,2.45
2023-04-10T10:46:34.576Z,2.40
2023-04-10T10:49:02.441Z,2.42
2023-04-10T10:51:51.179Z,2.20
2023-04-10T10:54:31.416Z,2.20
2023-04-10T10:57:00.131Z,2.15
2023-04-10T10:59:46.455Z,2.00
2023-04-10T11:02:18.999Z,2.15
2023-04-10T11:04:51.407Z,2.30
2023-04-10T11:07:19.351Z,2.15
2023-04-10T11:09:57.062Z,1.85
2023-04-10T11:12:26.833Z,2.05
2023-04-10T11:15:04.772Z,1.83
2023-04-10T11:17:54.342Z,1.70
2023-04-10T11:20:26.971Z,1.77
2023-04-10T11:23:12.137Z,1.70
2023-04-10T11:25:55.858Z,1.83
2023-04-10T11:28:33.110Z,1.70
2023-04-10T11:31:19.631Z,1.70
2023-04-10T11:34:01.679Z,1.80
2023-04-10T11:36:46.177Z,1.80
2023-04-10T11:39:20.818Z,1.60
2023-04-10T11:41:51.951Z,1.10
2023-04-10T11:44:39.038Z,1.35
2023-04-10T11:47:06.719Z,1.10
2023-04-10T11:49:35.002Z,0.90
2023-04-10T11:52:03.127Z,0.80
2023-04-10T11:54:31.267Z,0.80
2023-04-10T11:57:10.174Z,0.80
2023-04-10T11:59:37.764Z,0.90
2023-04-10T12:02:15.135Z,1.30
2023-04-10T12:04:44.656Z,1.10
2023-04-10T12:07:12.583Z,0.70
2023-04-10T12:09:40.644Z,0.95
2023-04-10T12:12:08.893Z,1.13
2023-04-10T12:14:39.766Z,1.50
2023-04-10T12:17:10.024Z,1.70
2023-04-10T12:19:39.725Z,1.60
2023-04-10T12:22:07.709Z,1.40
2023-04-10T12:24:47.387Z,1.33
2023-04-10T12:27:26.773Z,1.27
2023-04-10T12:29:57.863Z,1.20
2023-04-10T12:32:27.634Z,1.00
2023-04-10T12:35:01.141Z,1.23
2023-04-10T12:37:52.273Z,1.40
2023-04-10T12:40:45.517Z,0.85
2023-04-10T12:43:30.587Z,1.27
2023-04-10T12:45:58.588Z,1.88
2023-04-10T12:48:26.356Z,2.13
2023-04-10T12:50:53.984Z,1.33
2023-04-10T12:53:21.719Z,1.10
2023-04-10T12:56:09.405Z,1.00
2023-04-10T12:58:37.234Z,1.30
2023-04-10T13:01:09.802Z,1.60
2023-04-10T13:03:38.198Z,1.25
2023-04-10T13:06:07.540Z,0.95
2023-04-10T13:08:36.451Z,1.50
2023-04-10T13:11:05.576Z,1.42
2023-04-10T13:13:33.752Z,1.20
2023-04-10T13:16:01.511Z,1.50
2023-04-10T13:18:29.327Z,1.40
2023-04-10T13:20:57.056Z,1.73
2023-04-10T13:23:25.009Z,1.40
2023-04-10T13:25:53.782Z,1.37
2023-04-10T13:28:21.911Z,1.23
2023-04-10T13:30:49.558Z,1.30
2023-04-10T13:33:17.231Z,1.20
2023-04-10T13:35:45.428Z,1.20
2023-04-10T13:38:13.656Z,1.35
2023-04-10T13:40:41.956Z,1.40
2023-04-10T13:43:10.114Z,1.50
2023-04-10T13:45:37.734Z,1.40
2023-04-10T13:48:07.422Z,1.10
2023-04-10T13:50:35.172Z,1.00
2023-04-10T13:53:02.951Z,1.30
2023-04-10T13:55:30.564Z,1.50
2023-04-10T13:57:58.280Z,1.65
2023-04-10T14:00:26.312Z,1.35
2023-04-10T14:02:54.283Z,0.90
2023-04-10T14:05:22.594Z,1.13
2023-04-10T14:07:57.349Z,1.10
2023-04-10T14:10:25.309Z,1.30
2023-04-10T14:12:52.940Z,1.25
2023-04-10T14:15:20.589Z,1.60
2023-04-10T14:17:48.410Z,1.10
2023-04-10T14:20:16.125Z,1.60
2023-04-10T14:22:47.450Z,1.58
2023-04-10T14:25:22.808Z,1.70
2023-04-10T14:27:54.061Z,1.50
2023-04-10T14:30:21.769Z,1.65
2023-04-10T14:32:49.608Z,1.50
2023-04-10T14:35:18.131Z,1.70
2023-04-10T14:37:45.943Z,1.27
2023-04-10T14:40:14.586Z,1.20
2023-04-10T14:45:13.524Z,1.58
2023-04-10T14:47:41.834Z,1.33
2023-04-10T14:50:10.207Z,1.40
2023-04-10T14:52:38.463Z,1.60
2023-04-10T14:55:06.890Z,1.23
2023-04-10T14:57:36.134Z,1.10
2023-04-10T15:00:05.300Z,0.90
2023-04-10T15:05:04.657Z,1.00
2023-04-10T15:07:32.477Z,1.35
2023-04-10T15:10:00.400Z,1.45
2023-04-10T15:12:28.089Z,1.27
2023-04-10T15:14:55.722Z,1.27
2023-04-10T15:17:24.291Z,1.40
2023-04-10T15:19:51.996Z,1.27
2023-04-10T15:22:19.642Z,1.60
2023-04-10T15:24:50.874Z,1.77
2023-04-10T15:27:22.149Z,1.30
2023-04-10T15:29:50.321Z,1.50
2023-04-10T15:32:18.056Z,1.55
2023-04-10T15:34:46.158Z,1.70
2023-04-10T15:37:14.333Z,2.20
2023-04-10T15:39:42.200Z,1.63
2023-04-10T15:42:10.357Z,1.70
2023-04-10T15:44:38.565Z,1.65
2023-04-10T15:47:06.887Z,1.65
2023-04-10T15:49:38.183Z,1.80
2023-04-10T15:52:07.483Z,1.50
2023-04-10T15:54:35.563Z,1.42
2023-04-10T15:57:04.826Z,1.80
2023-04-10T15:59:33.798Z,2.10
2023-04-10T16:02:01.894Z,1.90
2023-04-10T16:04:31.099Z,1.87
2023-04-10T16:06:59.450Z,1.75
2023-04-10T16:09:27.657Z,2.15
2023-04-10T16:11:56.158Z,1.92
2023-04-10T16:14:23.956Z,2.00
2023-04-10T16:16:51.531Z,1.92
2023-04-10T16:19:19.428Z,2.80
2023-04-10T16:21:47.032Z,2.67
2023-04-10T16:24:14.699Z,5.30
2023-04-10T16:26:42.415Z,2.28
2023-04-10T16:29:10.036Z,1.60
2023-04-10T16:31:37.780Z,2.13
2023-04-10T16:34:09.887Z,2.45
2023-04-10T16:36:38.063Z,1.80
2023-04-10T16:39:07.417Z,1.60
2023-04-10T16:41:36.521Z,1.58
2023-04-10T16:44:04.985Z,1.95
2023-04-10T16:46:33.283Z,1.80
2023-04-10T16:49:01.643Z,1.70
2023-04-10T16:51:29.679Z,1.52
2023-04-10T16:53:57.588Z,1.40
2023-04-10T16:56:25.467Z,1.40
2023-04-10T16:58:53.567Z,1.50
2023-04-10T17:01:27.108Z,1.83
2023-04-10T17:03:55.329Z,1.70
2023-04-10T17:06:23.321Z,1.80
2023-04-10T17:08:51.401Z,1.90
2023-04-10T17:11:19.088Z,2.00
2023-04-10T17:13:46.850Z,1.50
2023-04-10T17:16:14.995Z,1.52
2023-04-10T17:18:43.518Z,1.80
2023-04-10T17:21:14.568Z,1.75
2023-04-10T17:23:42.541Z,1.42
2023-04-10T17:26:15.179Z,1.50
2023-04-10T17:28:46.382Z,1.58
2023-04-10T17:31:15.932Z,1.85
2023-04-10T17:36:13.570Z,1.45
2023-04-10T17:38:47.753Z,1.60
2023-04-10T17:41:16.406Z,2.13
2023-04-10T17:43:44.907Z,2.20
2023-04-10T17:46:17.076Z,1.90
2023-04-10T17:48:46.108Z,1.77
2023-04-10T17:51:18.481Z,1.83
2023-04-10T17:53:46.742Z,2.38
2023-04-10T17:56:20.823Z,2.23
2023-04-10T17:58:48.689Z,1.83
2023-04-10T18:01:30.977Z,2.50
2023-04-10T18:03:59.733Z,2.10
2023-04-10T18:06:27.667Z,2.30
2023-04-10T18:08:57.503Z,2.80
2023-04-10T18:11:26.162Z,2.60
2023-04-10T18:13:53.690Z,2.20
2023-04-10T18:16:21.329Z,2.42
2023-04-10T18:18:48.918Z,2.05
2023-04-10T18:21:16.602Z,2.28
2023-04-10T18:23:44.626Z,1.90
2023-04-10T18:26:13.202Z,2.20
2023-04-10T18:28:43.047Z,1.90
2023-04-10T18:31:12.507Z,2.08
2023-04-10T18:33:40.195Z,2.00
2023-04-10T18:36:08.372Z,2.10
2023-04-10T18:38:36.656Z,2.10
2023-04-10T18:41:05.334Z,2.03
2023-04-10T18:43:32.906Z,4.50
2023-04-10T18:46:00.827Z,2.85
2023-04-10T18:48:28.617Z,3.40
2023-04-10T18:50:56.309Z,2.40
2023-04-10T18:53:23.972Z,1.98
2023-04-10T18:55:52.796Z,2.53
2023-04-10T18:58:21.934Z,2.47
2023-04-10T19:03:17.538Z,2.70
2023-04-10T19:05:45.887Z,2.38
2023-04-10T19:08:14.639Z,2.63
2023-04-10T19:10:43.307Z,4.40
2023-04-10T19:13:12.220Z,3.67
2023-04-10T19:15:46.487Z,3.00
2023-04-10T19:18:15.884Z,2.72
2023-04-10T19:20:49.231Z,2.63
2023-04-10T19:23:20.539Z,2.60
2023-04-10T19:25:53.347Z,7.00
2023-04-10T19:28:23.758Z,6.35
2023-04-10T19:30:52.204Z,6.18
2023-04-10T19:33:20.569Z,9.25
2023-04-10T19:35:48.166Z,10.70
2023-04-10T19:38:15.871Z,8.32
2023-04-10T19:40:49.109Z,7.70
2023-04-10T19:43:17.103Z,6.45
2023-04-10T19:45:50.441Z,5.75
2023-04-10T19:48:18.445Z,6.20
2023-04-10T19:50:48.580Z,6.40
2023-04-10T19:53:16.422Z,3.40
2023-04-10T19:55:44.989Z,6.05
2023-04-10T19:58:29.976Z,3.30
2023-04-10T20:01:10.178Z,3.40
2023-04-10T20:03:38.701Z,3.60
2023-04-10T20:06:07.698Z,3.65
2023-04-10T20:08:36.498Z,2.75
2023-04-10T20:11:06.225Z,4.27
2023-04-10T20:13:34.846Z,2.38
2023-04-10T20:16:03.023Z,3.30
2023-04-10T20:18:32.122Z,3.03
2023-04-10T20:20:59.838Z,2.10
2023-04-10T20:23:27.524Z,2.00
2023-04-10T20:25:56.593Z,2.10
2023-04-10T20:28:24.658Z,2.13
2023-04-10T20:30:52.310Z,2.10
2023-04-10T20:33:19.940Z,2.92
2023-04-10T20:35:47.554Z,3.55
2023-04-10T20:38:15.367Z,2.60
2023-04-10T20:41:08.688Z,2.30
2023-04-10T20:43:36.746Z,2.28
2023-04-10T20:46:09.131Z,2.33
2023-04-10T20:48:38.029Z,2.60
2023-04-10T20:51:06.456Z,2.50
2023-04-10T20:53:34.344Z,2.43
2023-04-10T20:56:06.484Z,2.38
2023-04-10T20:58:34.360Z,2.45
2023-04-10T21:01:02.044Z,2.72
2023-04-10T21:03:30.788Z,4.15
2023-04-10T21:05:59.030Z,2.72
2023-04-10T21:08:27.577Z,2.25
2023-04-10T21:10:58.628Z,2.30
2023-04-10T21:13:26.718Z,2.67
2023-04-10T21:15:54.301Z,2.38
2023-04-10T21:18:21.966Z,2.75
2023-04-10T21:20:49.826Z,2.75
2023-04-10T21:23:17.484Z,3.38
2023-04-10T21:25:54.432Z,2.40
2023-04-10T21:28:22.415Z,2.40
2023-04-10T21:30:49.995Z,2.10
2023-04-10T21:33:17.541Z,2.13
2023-04-10T21:35:46.110Z,2.25
2023-04-10T21:38:13.929Z,2.60
2023-04-10T21:41:07.145Z,2.20
2023-04-10T21:43:35.383Z,3.00
2023-04-10T21:46:03.567Z,2.88
2023-04-10T21:48:31.527Z,2.15
2023-04-10T21:50:59.290Z,1.95
2023-04-10T21:53:26.889Z,2.35
2023-04-10T21:55:54.592Z,2.35
2023-04-10T21:58:22.113Z,2.67
2023-04-10T22:00:51.602Z,2.75
2023-04-10T22:03:20.284Z,3.65
2023-04-10T22:05:50.200Z,2.20
2023-04-10T22:08:20.138Z,2.22
2023-04-10T22:10:48.108Z,2.30
2023-04-10T22:15:47.124Z,2.10
2023-04-10T22:18:14.752Z,2.43
2023-04-10T22:20:42.647Z,2.08
2023-04-10T22:23:10.587Z,2.23
2023-04-10T22:25:38.953Z,2.00
2023-04-10T22:28:06.640Z,2.10
2023-04-10T22:30:35.495Z,2.10
2023-04-10T22:33:03.179Z,2.35
2023-04-10T22:35:31.562Z,2.78
2023-04-10T22:37:59.387Z,2.47
2023-04-10T22:40:27.146Z,2.03
2023-04-10T22:42:55.210Z,3.10
2023-04-10T22:45:22.877Z,3.75
2023-04-10T22:47:50.910Z,3.00
2023-04-10T22:50:18.937Z,3.50
2023-04-10T22:52:46.588Z,2.70
2023-04-10T22:55:14.726Z,3.42
2023-04-10T22:57:47.338Z,3.30
2023-04-10T23:00:16.110Z,3.45
2023-04-10T23:02:43.947Z,2.93
2023-04-10T23:05:14.725Z,2.65
2023-04-10T23:07:42.330Z,2.67
2023-04-10T23:10:10.236Z,2.20
2023-04-10T23:12:37.798Z,2.90
2023-04-10T23:15:08.128Z,2.67
2023-04-10T23:17:35.837Z,2.55
2023-04-10T23:20:03.704Z,2.17
2023-04-10T23:22:31.381Z,2.17
2023-04-10T23:24:59.012Z,2.13
2023-04-10T23:27:26.878Z,2.05
2023-04-10T23:29:54.724Z,3.92
2023-04-10T23:32:22.329Z,2.53
2023-04-10T23:34:49.955Z,1.90
2023-04-10T23:37:17.480Z,1.63
2023-04-10T23:39:45.005Z,1.60
2023-04-10T23:42:12.607Z,2.03
2023-04-10T23:44:40.887Z,2.03
2023-04-10T23:47:14.030Z,1.87
2023-04-10T23:49:41.595Z,1.70
2023-04-10T23:52:10.676Z,1.80
2023-04-10T23:54:38.244Z,1.30
2023-04-10T23:57:05.947Z,1.77
2023-04-10T23:59:33.768Z,1.50
